createdAt,value
2022-09-25T00:00:00.939Z,62.07
2022-09-25T00:02:29.665Z,70.20
2022-09-25T00:04:58.111Z,60.47
2022-09-25T00:07:26.449Z,65.43
2022-09-25T00:09:54.676Z,62.97
2022-09-25T00:12:23.160Z,70.20
2022-09-25T00:14:51.696Z,93.20
2022-09-25T00:17:21.398Z,72.13
2022-09-25T00:19:51.591Z,70.40
2022-09-25T00:22:20.637Z,66.77
2022-09-25T00:24:50.438Z,64.73
2022-09-25T00:27:19.344Z,66.63
2022-09-25T00:29:48.385Z,71.37
2022-09-25T00:32:16.700Z,71.57
2022-09-25T00:34:46.948Z,76.80
2022-09-25T00:37:15.360Z,68.10
2022-09-25T00:39:43.735Z,69.93
2022-09-25T00:42:13.906Z,67.83
2022-09-25T00:45:01.943Z,66.67
2022-09-25T00:47:52.533Z,69.60
2022-09-25T00:50:29.961Z,78.33
2022-09-25T00:53:04.269Z,76.67
2022-09-25T00:55:34.899Z,77.90
2022-09-25T00:58:04.788Z,73.03
2022-09-25T01:00:34.461Z,72.30
2022-09-25T01:03:05.142Z,77.97
2022-09-25T01:05:39.378Z,74.03
2022-09-25T01:08:12.453Z,72.93
2022-09-25T01:10:42.022Z,73.93
2022-09-25T01:13:12.354Z,70.73
2022-09-25T01:15:45.592Z,74.27
2022-09-25T01:18:23.255Z,77.30
2022-09-25T01:21:05.050Z,76.63
2022-09-25T01:24:01.731Z,78.30
2022-09-25T01:26:59.547Z,77.73
2022-09-25T01:29:34.916Z,80.20
2022-09-25T01:32:07.036Z,83.27
2022-09-25T01:34:41.987Z,84.97
2022-09-25T01:37:17.131Z,81.27
2022-09-25T01:39:51.836Z,82.37
2022-09-25T01:42:23.350Z,80.63
2022-09-25T01:44:56.469Z,83.33
2022-09-25T01:47:29.723Z,82.57
2022-09-25T01:50:01.363Z,82.60
2022-09-25T01:52:33.537Z,81.87
2022-09-25T01:55:09.043Z,86.30
2022-09-25T01:57:42.224Z,88.07
2022-09-25T02:00:15.787Z,88.10
2022-09-25T02:02:49.703Z,87.77
2022-09-25T02:05:23.194Z,86.40
2022-09-25T02:07:56.293Z,84.37
2022-09-25T02:10:29.327Z,95.80
2022-09-25T02:13:04.720Z,79.77
2022-09-25T02:15:39.042Z,80.63
2022-09-25T02:18:27.552Z,89.30
2022-09-25T02:21:02.337Z,87.20
2022-09-25T02:23:40.248Z,87.60
2022-09-25T02:26:14.719Z,81.93
2022-09-25T02:28:44.750Z,81.77
2022-09-25T02:31:16.860Z,84.27
2022-09-25T02:33:45.228Z,90.87
2022-09-25T02:36:19.911Z,85.87
2022-09-25T02:38:50.706Z,87.73
2022-09-25T02:41:31.080Z,88.77
2022-09-25T02:44:09.575Z,79.13
2022-09-25T02:46:45.275Z,81.53
2022-09-25T02:49:22.719Z,80.87
2022-09-25T02:51:58.661Z,83.10
2022-09-25T02:54:34.224Z,83.97
2022-09-25T02:57:15.385Z,75.97
2022-09-25T02:59:50.267Z,76.87
2022-09-25T03:02:21.939Z,79.57
2022-09-25T03:04:52.015Z,85.13
2022-09-25T03:07:21.364Z,83.30
2022-09-25T03:09:51.259Z,79.30
2022-09-25T03:12:22.207Z,86.77
2022-09-25T03:14:53.022Z,82.87
2022-09-25T03:17:25.730Z,87.10
2022-09-25T03:19:53.982Z,78.17
2022-09-25T03:22:24.494Z,78.40
2022-09-25T03:24:52.864Z,77.77
2022-09-25T03:27:22.051Z,82.97
2022-09-25T03:29:52.632Z,77.13
2022-09-25T03:32:22.876Z,83.30
2022-09-25T03:34:51.377Z,99.07
2022-09-25T03:37:19.560Z,91.47
2022-09-25T03:39:47.784Z,92.97
2022-09-25T03:42:16.659Z,90.17
2022-09-25T03:44:45.720Z,92.60
2022-09-25T03:47:14.082Z,89.23
2022-09-25T03:49:43.907Z,85.73
2022-09-25T03:52:12.889Z,82.90
2022-09-25T03:54:41.188Z,78.57
2022-09-25T03:57:12.452Z,95.03
2022-09-25T03:59:40.817Z,94.50
2022-09-25T04:02:10.237Z,91.40
2022-09-25T04:04:38.931Z,92.33
2022-09-25T04:07:10.422Z,74.20
2022-09-25T04:09:42.605Z,84.53
2022-09-25T04:12:11.275Z,86.23
2022-09-25T04:14:42.680Z,77.17
2022-09-25T04:17:11.040Z,73.57
2022-09-25T04:19:55.395Z,78.30
2022-09-25T04:22:26.212Z,65.40
2022-09-25T04:24:54.965Z,83.40
2022-09-25T04:27:24.386Z,81.13
2022-09-25T04:29:53.239Z,76.00
2022-09-25T04:32:38.839Z,71.43
2022-09-25T04:35:09.866Z,63.67
2022-09-25T04:37:39.521Z,72.57
2022-09-25T04:40:09.805Z,73.03
2022-09-25T04:42:38.085Z,62.73
2022-09-25T04:45:07.067Z,71.60
2022-09-25T04:47:35.715Z,71.37
2022-09-25T04:50:04.148Z,69.50
2022-09-25T04:52:32.809Z,67.80
2022-09-25T04:55:04.647Z,61.80
2022-09-25T04:57:57.188Z,69.40
2022-09-25T05:00:22.791Z,67.63
2022-09-25T05:02:51.302Z,65.13
2022-09-25T05:05:20.030Z,73.03
2022-09-25T05:07:55.365Z,66.90
2022-09-25T05:10:29.149Z,65.40
2022-09-25T05:13:01.741Z,65.63
2022-09-25T05:15:35.306Z,60.60
2022-09-25T05:18:05.625Z,58.90
2022-09-25T05:20:35.863Z,62.70
2022-09-25T05:23:04.604Z,58.97
2022-09-25T05:25:37.198Z,66.80
2022-09-25T05:28:05.926Z,61.00
2022-09-25T05:30:38.696Z,49.40
2022-09-25T05:33:07.468Z,56.43
2022-09-25T05:35:37.282Z,55.60
2022-09-25T05:38:08.990Z,58.07
2022-09-25T05:40:41.490Z,60.13
2022-09-25T05:43:09.898Z,56.07
2022-09-25T05:45:39.806Z,55.43
2022-09-25T05:48:10.750Z,61.90
2022-09-25T05:50:39.118Z,55.80
2022-09-25T05:53:07.648Z,60.67
2022-09-25T05:55:35.947Z,53.13
2022-09-25T05:58:06.403Z,54.43
2022-09-25T06:00:38.300Z,46.80
2022-09-25T06:03:06.640Z,52.07
2022-09-25T06:05:35.142Z,55.13
2022-09-25T06:08:03.977Z,57.53
2022-09-25T06:10:32.802Z,52.90
2022-09-25T06:13:04.918Z,56.87
2022-09-25T06:15:41.989Z,56.13
2022-09-25T06:18:10.982Z,69.17
2022-09-25T06:20:39.888Z,50.03
2022-09-25T06:23:08.721Z,53.87
2022-09-25T06:25:37.440Z,58.00
2022-09-25T06:28:06.951Z,56.70
2022-09-25T06:30:39.980Z,60.53
2022-09-25T06:33:13.779Z,61.57
2022-09-25T06:35:44.536Z,58.37
2022-09-25T06:38:14.592Z,62.90
2022-09-25T06:40:45.312Z,60.40
2022-09-25T06:43:17.849Z,53.37
2022-09-25T06:45:47.986Z,56.77
2022-09-25T06:48:16.952Z,58.97
2022-09-25T06:50:47.864Z,52.70
2022-09-25T06:53:18.166Z,58.27
2022-09-25T06:55:47.097Z,58.20
2022-09-25T06:58:17.997Z,52.80
2022-09-25T07:00:49.406Z,59.83
2022-09-25T07:03:35.677Z,60.70
2022-09-25T07:06:06.093Z,55.13
2022-09-25T07:08:35.296Z,55.10
2022-09-25T07:11:04.056Z,61.45
2022-09-25T07:13:35.101Z,56.08
2022-09-25T07:16:06.676Z,54.00
2022-09-25T07:18:35.904Z,54.35
2022-09-25T07:21:07.181Z,62.53
2022-09-25T07:23:38.025Z,56.75
2022-09-25T07:26:09.955Z,63.60
2022-09-25T07:28:39.259Z,56.47
2022-09-25T07:31:17.512Z,54.75
2022-09-25T07:33:46.270Z,54.05
2022-09-25T07:36:18.468Z,53.17
2022-09-25T07:38:50.586Z,48.50
2022-09-25T07:41:20.110Z,56.67
2022-09-25T07:43:48.495Z,49.28
2022-09-25T07:46:18.184Z,53.15
2022-09-25T07:48:49.850Z,60.88
2022-09-25T07:51:19.113Z,51.60
2022-09-25T07:53:47.689Z,45.97
2022-09-25T07:56:20.734Z,48.75
2022-09-25T07:58:49.602Z,42.60
2022-09-25T08:01:19.270Z,43.33
2022-09-25T08:03:49.398Z,46.35
2022-09-25T08:06:18.168Z,38.22
2022-09-25T08:08:46.407Z,41.75
2022-09-25T08:11:17.149Z,45.20
2022-09-25T08:13:46.733Z,36.63
2022-09-25T08:16:17.419Z,45.83
2022-09-25T08:18:49.384Z,38.47
2022-09-25T08:21:19.400Z,34.28
2022-09-25T08:23:51.356Z,37.95
2022-09-25T08:26:21.901Z,40.40
2022-09-25T08:28:52.048Z,32.83
2022-09-25T08:31:20.755Z,34.40
2022-09-25T08:33:51.500Z,31.85
2022-09-25T08:36:20.017Z,29.55
2022-09-25T08:38:48.729Z,28.20
2022-09-25T08:41:24.032Z,28.98
2022-09-25T08:44:00.014Z,27.45
2022-09-25T08:46:56.778Z,28.50
2022-09-25T08:49:31.730Z,31.63
2022-09-25T08:52:04.199Z,34.90
2022-09-25T08:54:36.223Z,25.42
2022-09-25T08:57:14.527Z,26.98
2022-09-25T08:59:47.423Z,23.73
2022-09-25T09:02:18.432Z,25.98
2022-09-25T09:04:52.327Z,33.13
2022-09-25T09:07:27.185Z,29.73
2022-09-25T09:10:03.623Z,31.48
2022-09-25T09:12:37.380Z,29.10
2022-09-25T09:15:25.935Z,27.63
2022-09-25T09:17:55.901Z,31.38
2022-09-25T09:20:33.123Z,29.73
2022-09-25T09:23:02.216Z,33.15
2022-09-25T09:25:46.333Z,32.42
2022-09-25T09:28:37.183Z,29.60
2022-09-25T09:31:15.071Z,33.85
2022-09-25T09:33:52.008Z,34.15
2022-09-25T09:36:31.575Z,30.92
2022-09-25T09:39:06.923Z,36.10
2022-09-25T09:41:47.172Z,27.60
2022-09-25T09:44:25.730Z,28.55
2022-09-25T09:47:03.560Z,33.50
2022-09-25T09:49:37.673Z,27.90
2022-09-25T09:52:12.029Z,22.95
2022-09-25T09:54:45.849Z,36.38
2022-09-25T09:57:19.705Z,29.65
2022-09-25T09:59:54.496Z,33.53
2022-09-25T10:02:32.239Z,35.22
2022-09-25T10:05:04.883Z,32.50
2022-09-25T10:07:39.080Z,25.80
2022-09-25T10:10:15.547Z,24.48
2022-09-25T10:12:47.623Z,22.30
2022-09-25T10:15:25.818Z,24.30
2022-09-25T10:17:55.979Z,20.15
2022-09-25T10:20:26.044Z,25.83
2022-09-25T10:22:59.550Z,31.33
2022-09-25T10:25:39.229Z,27.33
2022-09-25T10:28:26.697Z,20.67
2022-09-25T10:30:56.944Z,23.77
2022-09-25T10:33:27.272Z,22.67
2022-09-25T10:35:56.261Z,24.83
2022-09-25T10:38:37.493Z,38.85
2022-09-25T10:41:10.466Z,26.42
2022-09-25T10:43:53.247Z,22.85
2022-09-25T10:46:49.038Z,24.35
2022-09-25T10:49:38.849Z,23.67
2022-09-25T10:52:09.504Z,28.55
2022-09-25T10:54:44.902Z,21.25
2022-09-25T10:57:18.701Z,23.52
2022-09-25T10:59:50.192Z,22.05
2022-09-25T11:02:31.672Z,24.45
2022-09-25T11:05:01.872Z,26.42
2022-09-25T11:07:31.201Z,26.88
2022-09-25T11:10:01.016Z,22.02
2022-09-25T11:12:32.599Z,21.83
2022-09-25T11:15:05.847Z,18.67
2022-09-25T11:17:39.554Z,24.65
2022-09-25T11:20:22.576Z,22.25
2022-09-25T11:22:57.057Z,35.42
2022-09-25T11:25:34.550Z,17.30
2022-09-25T11:28:11.369Z,16.38
2022-09-25T11:30:45.815Z,20.42
2022-09-25T11:33:23.499Z,18.77
2022-09-25T11:35:58.828Z,20.15
2022-09-25T11:38:52.547Z,20.98
2022-09-25T11:41:30.800Z,11.68
2022-09-25T11:44:09.420Z,21.70
2022-09-25T11:46:50.339Z,15.88
2022-09-25T11:49:25.068Z,21.05
2022-09-25T11:52:21.357Z,17.38
2022-09-25T11:55:18.776Z,20.77
2022-09-25T11:57:59.699Z,14.57
2022-09-25T12:00:35.120Z,13.50
2022-09-25T12:03:17.037Z,13.73
2022-09-25T12:06:05.264Z,16.77
2022-09-25T12:08:50.570Z,16.08
2022-09-25T12:11:27.353Z,17.30
2022-09-25T12:14:04.552Z,21.13
2022-09-25T12:16:41.269Z,11.27
2022-09-25T12:19:27.048Z,15.35
2022-09-25T12:22:03.031Z,16.35
2022-09-25T12:24:44.939Z,17.58
2022-09-25T12:27:21.987Z,25.17
2022-09-25T12:30:08.548Z,13.30
2022-09-25T12:32:56.776Z,14.27
2022-09-25T12:35:38.476Z,15.27
2022-09-25T12:38:15.896Z,13.88
2022-09-25T12:40:49.572Z,8.88
2022-09-25T12:43:27.482Z,7.22
2022-09-25T12:46:03.566Z,16.23
2022-09-25T12:48:37.431Z,15.88
2022-09-25T12:51:10.722Z,15.93
2022-09-25T12:53:45.567Z,24.35
2022-09-25T12:56:18.378Z,16.33
2022-09-25T12:59:00.616Z,7.03
2022-09-25T13:01:39.616Z,12.27
2022-09-25T13:04:35.763Z,14.40
2022-09-25T13:07:10.809Z,9.45
2022-09-25T13:09:45.320Z,14.93
2022-09-25T13:12:25.886Z,14.07
2022-09-25T13:15:00.344Z,14.77
2022-09-25T13:17:32.858Z,7.93
2022-09-25T13:20:44.972Z,13.73
2022-09-25T13:23:16.900Z,12.13
2022-09-25T13:25:48.147Z,12.50
2022-09-25T13:28:22.892Z,7.22
2022-09-25T13:31:13.515Z,10.85
2022-09-25T13:34:04.737Z,10.48
2022-09-25T13:36:38.736Z,14.50
2022-09-25T13:39:37.321Z,9.27
2022-09-25T13:42:09.216Z,11.02
2022-09-25T13:45:07.675Z,10.30
2022-09-25T13:48:07.159Z,6.45
2022-09-25T13:50:40.480Z,12.63
2022-09-25T13:53:33.672Z,9.63
2022-09-25T13:56:15.234Z,7.18
2022-09-25T13:59:16.137Z,6.50
2022-09-25T14:01:48.471Z,8.88
2022-09-25T14:04:26.462Z,13.25
2022-09-25T14:07:11.979Z,12.93
2022-09-25T14:09:45.850Z,10.70
2022-09-25T14:12:30.032Z,11.32
2022-09-25T14:15:04.225Z,8.35
2022-09-25T14:17:36.788Z,7.13
2022-09-25T14:20:18.842Z,11.38
2022-09-25T14:22:56.216Z,6.75
2022-09-25T14:25:33.117Z,5.85
2022-09-25T14:28:04.231Z,7.15
2022-09-25T14:30:33.132Z,9.20
2022-09-25T14:33:25.752Z,15.52
2022-09-25T14:36:07.640Z,8.93
2022-09-25T14:38:58.252Z,9.88
2022-09-25T14:41:56.758Z,7.38
2022-09-25T14:44:49.206Z,6.72
2022-09-25T14:47:20.304Z,7.03
2022-09-25T14:49:52.374Z,10.00
2022-09-25T14:52:24.767Z,15.43
2022-09-25T14:54:57.009Z,7.68
2022-09-25T14:57:29.432Z,13.93
2022-09-25T15:00:01.072Z,5.28
2022-09-25T15:02:34.381Z,13.73
2022-09-25T15:05:18.364Z,8.30
2022-09-25T15:07:48.094Z,7.70
2022-09-25T15:10:31.913Z,7.18
2022-09-25T15:13:09.375Z,9.55
2022-09-25T15:15:39.621Z,7.43
2022-09-25T15:18:14.497Z,11.52
2022-09-25T15:20:49.555Z,7.65
2022-09-25T15:23:21.793Z,11.15
2022-09-25T15:25:53.961Z,10.98
2022-09-25T15:28:28.653Z,8.48
2022-09-25T15:30:59.341Z,6.18
2022-09-25T15:33:31.899Z,11.13
2022-09-25T15:36:02.311Z,10.07
2022-09-25T15:38:32.854Z,8.98
2022-09-25T15:41:03.449Z,9.45
2022-09-25T15:43:34.855Z,9.40
2022-09-25T15:46:31.209Z,7.93
2022-09-25T15:49:01.541Z,10.40
2022-09-25T15:51:33.514Z,7.10
2022-09-25T15:54:04.939Z,11.75
2022-09-25T15:56:40.214Z,8.13
2022-09-25T15:59:19.233Z,6.90
2022-09-25T16:02:05.200Z,8.77
2022-09-25T16:04:49.574Z,13.25
2022-09-25T16:07:30.080Z,5.00
2022-09-25T16:10:00.588Z,6.85
2022-09-25T16:12:35.012Z,12.13
2022-09-25T16:15:52.180Z,9.93
2022-09-25T16:18:41.873Z,15.30
2022-09-25T16:21:22.474Z,11.95
2022-09-25T16:23:57.665Z,19.05
2022-09-25T16:26:32.141Z,24.02
2022-09-25T16:29:10.079Z,12.10
2022-09-25T16:31:39.886Z,14.50
2022-09-25T16:34:17.503Z,8.93
2022-09-25T16:36:48.551Z,15.27
2022-09-25T16:39:25.864Z,11.82
2022-09-25T16:41:56.743Z,13.10
2022-09-25T16:44:40.370Z,17.75
2022-09-25T16:47:16.947Z,15.88
2022-09-25T16:49:46.024Z,11.25
2022-09-25T16:52:23.774Z,7.72
2022-09-25T16:54:54.305Z,11.82
2022-09-25T16:57:25.452Z,20.90
2022-09-25T16:59:57.469Z,12.25
2022-09-25T17:02:36.017Z,8.43
2022-09-25T17:05:07.821Z,11.40
2022-09-25T17:07:36.745Z,16.23
2022-09-25T17:10:06.041Z,17.70
2022-09-25T17:12:36.580Z,18.08
2022-09-25T17:15:20.111Z,18.83
2022-09-25T17:17:49.820Z,25.60
2022-09-25T17:20:18.504Z,30.85
2022-09-25T17:22:47.399Z,34.13
2022-09-25T17:25:31.455Z,42.83
2022-09-25T17:28:02.906Z,31.50
2022-09-25T17:30:32.820Z,36.78
2022-09-25T17:33:02.354Z,26.50
2022-09-25T17:35:38.597Z,20.98
2022-09-25T17:38:07.410Z,20.77
2022-09-25T17:40:36.074Z,23.08
2022-09-25T17:43:04.619Z,23.27
2022-09-25T17:45:39.059Z,20.08
2022-09-25T17:48:07.560Z,22.73
2022-09-25T17:50:36.789Z,14.38
2022-09-25T17:53:10.048Z,13.02
2022-09-25T17:55:39.983Z,19.33
2022-09-25T17:58:08.741Z,32.03
2022-09-25T18:00:38.972Z,18.88
2022-09-25T18:03:08.298Z,17.10
2022-09-25T18:05:39.197Z,15.32
2022-09-25T18:08:07.976Z,11.50
2022-09-25T18:10:36.918Z,27.17
2022-09-25T18:13:06.083Z,25.00
2022-09-25T18:15:42.793Z,21.55
2022-09-25T18:18:12.043Z,9.13
2022-09-25T18:20:59.736Z,18.85
2022-09-25T18:23:28.525Z,23.60
2022-09-25T18:25:59.772Z,23.83
2022-09-25T18:28:29.997Z,36.75
2022-09-25T18:31:00.063Z,18.02
2022-09-25T18:33:28.439Z,31.35
2022-09-25T18:35:56.753Z,30.88
2022-09-25T18:38:25.347Z,24.05
2022-09-25T18:40:54.026Z,25.65
2022-09-25T18:43:22.332Z,19.35
2022-09-25T18:45:54.903Z,23.13
2022-09-25T18:48:24.959Z,27.75
2022-09-25T18:50:53.683Z,23.48
2022-09-25T18:53:22.037Z,23.17
2022-09-25T18:55:55.512Z,24.08
2022-09-25T18:58:23.960Z,19.70
2022-09-25T19:00:52.710Z,17.90
2022-09-25T19:03:25.323Z,17.63
2022-09-25T19:05:58.401Z,20.77
2022-09-25T19:08:26.957Z,16.05
2022-09-25T19:10:55.367Z,21.65
2022-09-25T19:13:23.992Z,27.17
2022-09-25T19:15:52.771Z,28.80
2022-09-25T19:18:26.422Z,39.33
2022-09-25T19:20:55.773Z,24.58
2022-09-25T19:23:25.509Z,27.52
2022-09-25T19:25:58.061Z,31.35
2022-09-25T19:28:27.715Z,25.33
2022-09-25T19:31:00.399Z,20.70
2022-09-25T19:33:34.922Z,27.23
2022-09-25T19:36:08.540Z,39.30
2022-09-25T19:38:39.642Z,31.10
2022-09-25T19:41:13.668Z,30.88
2022-09-25T19:43:42.592Z,34.17
2022-09-25T19:46:14.551Z,45.08
2022-09-25T19:48:46.556Z,37.58
2022-09-25T19:51:16.335Z,28.13
2022-09-25T19:53:46.201Z,33.30
2022-09-25T19:56:15.997Z,33.03
2022-09-25T19:58:44.798Z,27.80
2022-09-25T20:01:14.984Z,31.20
2022-09-25T20:03:45.222Z,33.90
2022-09-25T20:06:15.077Z,25.98
2022-09-25T20:08:43.528Z,34.13
2022-09-25T20:11:14.514Z,28.50
2022-09-25T20:13:45.276Z,33.17
2022-09-25T20:16:15.608Z,36.40
2022-09-25T20:18:49.355Z,33.40
2022-09-25T20:21:21.434Z,29.83
2022-09-25T20:23:52.122Z,35.72
2022-09-25T20:26:20.908Z,43.67
2022-09-25T20:28:52.917Z,44.75
2022-09-25T20:31:22.905Z,38.92
2022-09-25T20:33:52.885Z,43.97
2022-09-25T20:36:22.624Z,48.03
2022-09-25T20:38:51.648Z,52.38
2022-09-25T20:41:21.049Z,49.28
2022-09-25T20:43:52.129Z,54.17
2022-09-25T20:46:22.109Z,44.50
2022-09-25T20:48:53.207Z,47.28
2022-09-25T20:51:23.971Z,37.92
2022-09-25T20:53:53.335Z,33.22
2022-09-25T20:56:22.946Z,56.75
2022-09-25T20:58:53.723Z,52.20
2022-09-25T21:01:24.964Z,33.90
2022-09-25T21:03:55.820Z,46.28
2022-09-25T21:06:26.050Z,42.95
2022-09-25T21:08:56.160Z,40.40
2022-09-25T21:11:26.587Z,48.72
2022-09-25T21:13:58.068Z,41.00
2022-09-25T21:16:28.252Z,38.95
2022-09-25T21:19:00.445Z,47.97
2022-09-25T21:21:29.796Z,50.40
2022-09-25T21:23:59.364Z,54.22
2022-09-25T21:26:30.539Z,54.85
2022-09-25T21:29:00.500Z,55.67
2022-09-25T21:31:32.464Z,50.15
2022-09-25T21:34:02.751Z,57.58
2022-09-25T21:36:31.193Z,56.92
2022-09-25T21:39:00.708Z,49.67
2022-09-25T21:41:31.242Z,45.78
2022-09-25T21:44:02.086Z,50.90
2022-09-25T21:46:31.474Z,40.75
2022-09-25T21:49:03.792Z,43.55
2022-09-25T21:51:35.751Z,39.50
2022-09-25T21:54:05.783Z,46.15
2022-09-25T21:56:35.605Z,50.30
2022-09-25T21:59:08.680Z,45.40
2022-09-25T22:01:40.668Z,43.25
2022-09-25T22:04:13.332Z,43.28
2022-09-25T22:06:44.450Z,42.05
2022-09-25T22:09:15.889Z,33.80
2022-09-25T22:11:47.802Z,43.05
2022-09-25T22:14:17.993Z,32.50
2022-09-25T22:16:48.613Z,40.85
2022-09-25T22:19:21.208Z,33.60
2022-09-25T22:21:53.090Z,27.65
2022-09-25T22:24:22.672Z,42.70
2022-09-25T22:26:52.797Z,32.63
2022-09-25T22:29:22.019Z,31.85
2022-09-25T22:31:50.976Z,34.08
2022-09-25T22:34:25.819Z,28.80
2022-09-25T22:36:59.566Z,36.90
2022-09-25T22:39:30.375Z,33.25
2022-09-25T22:41:59.014Z,30.67
2022-09-25T22:44:27.829Z,33.15
2022-09-25T22:46:57.782Z,37.80
2022-09-25T22:49:27.337Z,28.98
2022-09-25T22:51:55.885Z,29.70
2022-09-25T22:54:24.250Z,33.80
2022-09-25T22:56:54.318Z,33.05
2022-09-25T22:59:22.956Z,28.90
2022-09-25T23:01:53.569Z,35.65
2022-09-25T23:04:26.481Z,29.67
2022-09-25T23:06:56.741Z,25.85
2022-09-25T23:09:27.256Z,31.17
2022-09-25T23:11:57.525Z,27.50
2022-09-25T23:14:28.432Z,29.02
2022-09-25T23:17:00.460Z,34.35
2022-09-25T23:19:29.305Z,31.30
2022-09-25T23:21:59.253Z,27.45
2022-09-25T23:24:29.590Z,32.75
2022-09-25T23:26:58.306Z,29.58
2022-09-25T23:29:27.440Z,31.33
2022-09-25T23:31:55.976Z,30.98
2022-09-25T23:34:24.397Z,27.23
2022-09-25T23:36:52.918Z,22.80
2022-09-25T23:39:22.836Z,28.02
2022-09-25T23:41:52.171Z,27.08
2022-09-25T23:44:20.884Z,27.30
2022-09-25T23:46:49.074Z,31.35
2022-09-25T23:49:18.352Z,29.63
2022-09-25T23:51:48.111Z,25.70
2022-09-25T23:54:18.309Z,35.70
2022-09-25T23:56:47.921Z,31.67
2022-09-25T23:59:16.375Z,28.20
